sensor_id;sensor_type;location;lat;lon;timestamp;temperature;humidity
11836;DHT22;5977;51.972;7.640;2023-07-20T00:00:33;23.10;74.20
11836;DHT22;5977;51.972;7.640;2023-07-20T00:03:11;23.10;74.60
11836;DHT22;5977;51.972;7.640;2023-07-20T00:05:43;22.90;75.40
11836;DHT22;5977;51.972;7.640;2023-07-20T00:08:11;23.00;75.30
11836;DHT22;5977;51.972;7.640;2023-07-20T00:10:41;22.90;75.70
11836;DHT22;5977;51.972;7.640;2023-07-20T00:13:12;23.00;75.40
11836;DHT22;5977;51.972;7.640;2023-07-20T00:15:39;22.60;76.40
11836;DHT22;5977;51.972;7.640;2023-07-20T00:18:07;22.60;77.10
11836;DHT22;5977;51.972;7.640;2023-07-20T00:20:36;22.90;76.40
11836;DHT22;5977;51.972;7.640;2023-07-20T00:23:04;23.10;75.30
11836;DHT22;5977;51.972;7.640;2023-07-20T00:25:32;23.20;75.20
11836;DHT22;5977;51.972;7.640;2023-07-20T00:28:01;23.10;74.80
11836;DHT22;5977;51.972;7.640;2023-07-20T00:30:29;23.00;75.50
11836;DHT22;5977;51.972;7.640;2023-07-20T00:32:57;22.90;75.90
11836;DHT22;5977;51.972;7.640;2023-07-20T00:35:25;23.00;75.80
11836;DHT22;5977;51.972;7.640;2023-07-20T00:37:53;23.20;75.10
11836;DHT22;5977;51.972;7.640;2023-07-20T00:40:21;23.20;74.80
11836;DHT22;5977;51.972;7.640;2023-07-20T00:42:49;23.10;75.30
11836;DHT22;5977;51.972;7.640;2023-07-20T00:45:24;22.90;76.10
11836;DHT22;5977;51.972;7.640;2023-07-20T00:47:53;22.90;76.50
11836;DHT22;5977;51.972;7.640;2023-07-20T00:50:21;22.70;76.50
11836;DHT22;5977;51.972;7.640;2023-07-20T00:52:49;22.70;77.20
11836;DHT22;5977;51.972;7.640;2023-07-20T00:55:18;22.70;77.20
11836;DHT22;5977;51.972;7.640;2023-07-20T00:57:47;22.70;77.20
11836;DHT22;5977;51.972;7.640;2023-07-20T01:00:15;22.70;77.40
11836;DHT22;5977;51.972;7.640;2023-07-20T01:02:44;22.60;77.20
11836;DHT22;5977;51.972;7.640;2023-07-20T01:05:14;22.60;78.10
11836;DHT22;5977;51.972;7.640;2023-07-20T01:07:48;22.60;78.30
11836;DHT22;5977;51.972;7.640;2023-07-20T01:10:25;22.50;78.60
11836;DHT22;5977;51.972;7.640;2023-07-20T01:12:55;22.60;78.60
11836;DHT22;5977;51.972;7.640;2023-07-20T01:15:23;22.60;78.60
11836;DHT22;5977;51.972;7.640;2023-07-20T01:17:52;22.70;77.50
11836;DHT22;5977;51.972;7.640;2023-07-20T01:20:22;22.80;77.60
11836;DHT22;5977;51.972;7.640;2023-07-20T01:28:57;22.70;77.80
11836;DHT22;5977;51.972;7.640;2023-07-20T01:31:32;22.60;77.90
11836;DHT22;5977;51.972;7.640;2023-07-20T01:34:02;22.70;77.80
11836;DHT22;5977;51.972;7.640;2023-07-20T01:36:35;22.60;77.70
11836;DHT22;5977;51.972;7.640;2023-07-20T01:39:04;22.30;78.80
11836;DHT22;5977;51.972;7.640;2023-07-20T01:41:34;22.60;79.10
11836;DHT22;5977;51.972;7.640;2023-07-20T01:44:03;22.60;78.70
11836;DHT22;5977;51.972;7.640;2023-07-20T01:46:33;22.70;78.50
11836;DHT22;5977;51.972;7.640;2023-07-20T01:49:01;22.70;78.30
11836;DHT22;5977;51.972;7.640;2023-07-20T01:51:31;22.50;79.10
11836;DHT22;5977;51.972;7.640;2023-07-20T01:53:59;22.70;79.00
11836;DHT22;5977;51.972;7.640;2023-07-20T01:56:27;22.50;79.20
11836;DHT22;5977;51.972;7.640;2023-07-20T01:58:56;22.30;79.90
11836;DHT22;5977;51.972;7.640;2023-07-20T02:01:23;22.50;79.90
11836;DHT22;5977;51.972;7.640;2023-07-20T02:03:53;22.50;79.30
11836;DHT22;5977;51.972;7.640;2023-07-20T02:06:21;22.40;79.80
11836;DHT22;5977;51.972;7.640;2023-07-20T02:08:49;22.50;79.10
11836;DHT22;5977;51.972;7.640;2023-07-20T02:11:17;22.70;79.60
11836;DHT22;5977;51.972;7.640;2023-07-20T02:13:46;23.00;78.30
11836;DHT22;5977;51.972;7.640;2023-07-20T02:16:14;23.10;76.50
11836;DHT22;5977;51.972;7.640;2023-07-20T02:18:42;23.10;76.70
11836;DHT22;5977;51.972;7.640;2023-07-20T02:21:12;22.90;76.50
11836;DHT22;5977;51.972;7.640;2023-07-20T02:23:40;22.70;77.90
11836;DHT22;5977;51.972;7.640;2023-07-20T02:26:08;22.70;78.10
11836;DHT22;5977;51.972;7.640;2023-07-20T02:28:36;22.90;77.50
11836;DHT22;5977;51.972;7.640;2023-07-20T02:31:04;22.90;76.80
11836;DHT22;5977;51.972;7.640;2023-07-20T02:33:32;22.80;77.50
11836;DHT22;5977;51.972;7.640;2023-07-20T02:36:00;22.30;79.20
11836;DHT22;5977;51.972;7.640;2023-07-20T02:38:30;22.30;80.10
11836;DHT22;5977;51.972;7.640;2023-07-20T02:40:57;22.50;79.00
11836;DHT22;5977;51.972;7.640;2023-07-20T02:43:25;22.60;78.10
11836;DHT22;5977;51.972;7.640;2023-07-20T02:45:53;22.40;78.50
11836;DHT22;5977;51.972;7.640;2023-07-20T02:48:22;22.50;78.60
11836;DHT22;5977;51.972;7.640;2023-07-20T02:50:50;22.70;78.10
11836;DHT22;5977;51.972;7.640;2023-07-20T02:53:18;22.50;78.20
11836;DHT22;5977;51.972;7.640;2023-07-20T02:55:47;22.60;78.30
11836;DHT22;5977;51.972;7.640;2023-07-20T02:58:15;22.40;79.00
11836;DHT22;5977;51.972;7.640;2023-07-20T03:00:43;22.40;79.50
11836;DHT22;5977;51.972;7.640;2023-07-20T03:03:11;22.60;78.70
11836;DHT22;5977;51.972;7.640;2023-07-20T03:05:41;22.70;77.10
11836;DHT22;5977;51.972;7.640;2023-07-20T03:08:09;22.60;77.00
11836;DHT22;5977;51.972;7.640;2023-07-20T03:10:40;22.50;77.30
11836;DHT22;5977;51.972;7.640;2023-07-20T03:13:10;22.30;77.70
11836;DHT22;5977;51.972;7.640;2023-07-20T03:15:39;22.40;77.40
11836;DHT22;5977;51.972;7.640;2023-07-20T03:18:07;22.60;77.40
11836;DHT22;5977;51.972;7.640;2023-07-20T03:20:35;22.70;77.10
11836;DHT22;5977;51.972;7.640;2023-07-20T03:23:04;22.40;77.20
11836;DHT22;5977;51.972;7.640;2023-07-20T03:25:32;22.20;78.60
11836;DHT22;5977;51.972;7.640;2023-07-20T03:28:04;21.90;79.30
11836;DHT22;5977;51.972;7.640;2023-07-20T03:30:34;22.20;79.00
11836;DHT22;5977;51.972;7.640;2023-07-20T03:33:02;22.00;79.30
11836;DHT22;5977;51.972;7.640;2023-07-20T03:35:31;22.10;79.50
11836;DHT22;5977;51.972;7.640;2023-07-20T03:37:59;22.10;80.00
11836;DHT22;5977;51.972;7.640;2023-07-20T03:40:27;22.00;79.60
11836;DHT22;5977;51.972;7.640;2023-07-20T03:42:55;22.30;79.00
11836;DHT22;5977;51.972;7.640;2023-07-20T03:45:23;22.50;77.80
11836;DHT22;5977;51.972;7.640;2023-07-20T03:47:52;22.40;78.00
11836;DHT22;5977;51.972;7.640;2023-07-20T03:50:22;22.40;77.80
11836;DHT22;5977;51.972;7.640;2023-07-20T03:52:50;22.30;77.50
11836;DHT22;5977;51.972;7.640;2023-07-20T03:55:17;22.30;78.20
11836;DHT22;5977;51.972;7.640;2023-07-20T03:57:45;22.30;77.70
11836;DHT22;5977;51.972;7.640;2023-07-20T04:00:14;22.10;78.80
11836;DHT22;5977;51.972;7.640;2023-07-20T04:02:43;22.40;78.30
11836;DHT22;5977;51.972;7.640;2023-07-20T04:05:12;22.50;78.30
11836;DHT22;5977;51.972;7.640;2023-07-20T04:07:40;22.40;76.90
11836;DHT22;5977;51.972;7.640;2023-07-20T04:10:09;22.40;78.20
11836;DHT22;5977;51.972;7.640;2023-07-20T04:12:37;22.30;78.10
11836;DHT22;5977;51.972;7.640;2023-07-20T04:15:07;22.00;79.40
11836;DHT22;5977;51.972;7.640;2023-07-20T04:17:35;22.10;78.50
11836;DHT22;5977;51.972;7.640;2023-07-20T04:20:03;22.20;79.20
11836;DHT22;5977;51.972;7.640;2023-07-20T04:22:34;22.10;79.10
11836;DHT22;5977;51.972;7.640;2023-07-20T04:25:03;22.10;79.60
11836;DHT22;5977;51.972;7.640;2023-07-20T04:27:32;21.90;79.50
11836;DHT22;5977;51.972;7.640;2023-07-20T04:30:00;22.20;80.30
11836;DHT22;5977;51.972;7.640;2023-07-20T04:32:29;22.00;79.60
11836;DHT22;5977;51.972;7.640;2023-07-20T04:34:57;22.30;80.10
11836;DHT22;5977;51.972;7.640;2023-07-20T04:37:25;22.20;79.00
11836;DHT22;5977;51.972;7.640;2023-07-20T04:39:55;22.20;79.00
11836;DHT22;5977;51.972;7.640;2023-07-20T04:42:22;22.40;78.30
11836;DHT22;5977;51.972;7.640;2023-07-20T04:44:50;21.70;79.50
11836;DHT22;5977;51.972;7.640;2023-07-20T04:47:18;21.80;80.90
11836;DHT22;5977;51.972;7.640;2023-07-20T04:49:48;22.10;80.10
11836;DHT22;5977;51.972;7.640;2023-07-20T04:52:16;22.30;78.70
11836;DHT22;5977;51.972;7.640;2023-07-20T04:54:44;22.10;79.50
11836;DHT22;5977;51.972;7.640;2023-07-20T04:57:14;22.30;78.80
11836;DHT22;5977;51.972;7.640;2023-07-20T04:59:46;22.50;77.90
11836;DHT22;5977;51.972;7.640;2023-07-20T05:02:14;22.50;78.40
11836;DHT22;5977;51.972;7.640;2023-07-20T05:04:42;22.50;77.70
11836;DHT22;5977;51.972;7.640;2023-07-20T05:07:10;22.50;78.00
11836;DHT22;5977;51.972;7.640;2023-07-20T05:09:38;22.50;77.30
11836;DHT22;5977;51.972;7.640;2023-07-20T05:12:08;22.50;77.10
11836;DHT22;5977;51.972;7.640;2023-07-20T05:14:37;22.60;77.20
11836;DHT22;5977;51.972;7.640;2023-07-20T05:17:05;22.60;77.20
11836;DHT22;5977;51.972;7.640;2023-07-20T05:19:34;22.70;76.60
11836;DHT22;5977;51.972;7.640;2023-07-20T05:22:04;22.60;76.50
11836;DHT22;5977;51.972;7.640;2023-07-20T05:24:32;22.30;77.00
11836;DHT22;5977;51.972;7.640;2023-07-20T05:27:00;22.10;77.80
11836;DHT22;5977;51.972;7.640;2023-07-20T05:29:28;22.50;77.70
11836;DHT22;5977;51.972;7.640;2023-07-20T05:31:57;22.40;77.90
11836;DHT22;5977;51.972;7.640;2023-07-20T05:34:32;22.60;77.60
11836;DHT22;5977;51.972;7.640;2023-07-20T05:37:02;22.30;76.90
11836;DHT22;5977;51.972;7.640;2023-07-20T05:39:32;22.30;78.10
11836;DHT22;5977;51.972;7.640;2023-07-20T05:42:00;22.00;78.00
11836;DHT22;5977;51.972;7.640;2023-07-20T05:44:28;22.20;79.20
11836;DHT22;5977;51.972;7.640;2023-07-20T05:46:57;22.30;78.00
11836;DHT22;5977;51.972;7.640;2023-07-20T05:49:25;22.40;77.80
11836;DHT22;5977;51.972;7.640;2023-07-20T05:51:53;22.80;77.20
11836;DHT22;5977;51.972;7.640;2023-07-20T05:54:21;22.90;76.00
11836;DHT22;5977;51.972;7.640;2023-07-20T05:56:49;22.80;75.10
11836;DHT22;5977;51.972;7.640;2023-07-20T05:59:17;22.80;76.30
11836;DHT22;5977;51.972;7.640;2023-07-20T06:01:50;22.80;75.50
11836;DHT22;5977;51.972;7.640;2023-07-20T06:04:25;23.10;75.50
11836;DHT22;5977;51.972;7.640;2023-07-20T06:06:58;22.90;75.30
11836;DHT22;5977;51.972;7.640;2023-07-20T06:09:26;22.90;75.60
11836;DHT22;5977;51.972;7.640;2023-07-20T06:11:55;23.00;75.10
11836;DHT22;5977;51.972;7.640;2023-07-20T06:14:24;23.10;74.90
11836;DHT22;5977;51.972;7.640;2023-07-20T06:16:56;23.00;74.70
11836;DHT22;5977;51.972;7.640;2023-07-20T06:19:26;22.90;74.60
11836;DHT22;5977;51.972;7.640;2023-07-20T06:21:57;23.20;74.90
11836;DHT22;5977;51.972;7.640;2023-07-20T06:24:30;23.10;74.20
11836;DHT22;5977;51.972;7.640;2023-07-20T06:26:58;23.20;73.40
11836;DHT22;5977;51.972;7.640;2023-07-20T06:29:28;23.10;73.50
11836;DHT22;5977;51.972;7.640;2023-07-20T06:31:58;23.10;72.70
11836;DHT22;5977;51.972;7.640;2023-07-20T06:34:28;23.10;73.20
11836;DHT22;5977;51.972;7.640;2023-07-20T06:36:56;22.80;73.00
11836;DHT22;5977;51.972;7.640;2023-07-20T06:39:24;22.60;73.50
11836;DHT22;5977;51.972;7.640;2023-07-20T06:41:55;22.50;74.80
11836;DHT22;5977;51.972;7.640;2023-07-20T06:44:23;22.50;73.40
11836;DHT22;5977;51.972;7.640;2023-07-20T06:46:51;22.90;74.30
11836;DHT22;5977;51.972;7.640;2023-07-20T06:49:26;22.80;72.50
11836;DHT22;5977;51.972;7.640;2023-07-20T06:51:55;22.60;74.00
11836;DHT22;5977;51.972;7.640;2023-07-20T06:54:23;23.00;73.20
11836;DHT22;5977;51.972;7.640;2023-07-20T06:56:51;23.10;72.90
11836;DHT22;5977;51.972;7.640;2023-07-20T06:59:22;23.50;72.40
11836;DHT22;5977;51.972;7.640;2023-07-20T07:01:51;23.60;70.80
11836;DHT22;5977;51.972;7.640;2023-07-20T07:04:18;23.80;70.80
11836;DHT22;5977;51.972;7.640;2023-07-20T07:06:47;24.00;69.80
11836;DHT22;5977;51.972;7.640;2023-07-20T07:09:16;23.90;69.30
11836;DHT22;5977;51.972;7.640;2023-07-20T07:11:44;23.90;68.90
11836;DHT22;5977;51.972;7.640;2023-07-20T07:14:12;23.50;68.90
11836;DHT22;5977;51.972;7.640;2023-07-20T07:16:40;23.70;69.90
11836;DHT22;5977;51.972;7.640;2023-07-20T07:19:08;23.80;69.20
11836;DHT22;5977;51.972;7.640;2023-07-20T07:21:36;23.90;68.70
11836;DHT22;5977;51.972;7.640;2023-07-20T07:24:05;24.00;68.10
11836;DHT22;5977;51.972;7.640;2023-07-20T07:26:35;23.90;68.20
11836;DHT22;5977;51.972;7.640;2023-07-20T07:29:03;23.90;67.50
11836;DHT22;5977;51.972;7.640;2023-07-20T07:31:34;24.00;68.00
11836;DHT22;5977;51.972;7.640;2023-07-20T07:34:03;23.80;67.20
11836;DHT22;5977;51.972;7.640;2023-07-20T07:36:31;24.00;68.20
11836;DHT22;5977;51.972;7.640;2023-07-20T07:38:59;24.00;67.40
11836;DHT22;5977;51.972;7.640;2023-07-20T07:41:30;23.40;68.40
11836;DHT22;5977;51.972;7.640;2023-07-20T07:43:59;23.50;68.00
11836;DHT22;5977;51.972;7.640;2023-07-20T07:46:27;23.50;68.30
11836;DHT22;5977;51.972;7.640;2023-07-20T07:48:55;23.40;68.10
11836;DHT22;5977;51.972;7.640;2023-07-20T07:51:23;22.90;67.20
11836;DHT22;5977;51.972;7.640;2023-07-20T07:53:52;22.70;68.60
11836;DHT22;5977;51.972;7.640;2023-07-20T07:56:20;23.00;69.40
11836;DHT22;5977;51.972;7.640;2023-07-20T07:58:50;23.20;68.20
11836;DHT22;5977;51.972;7.640;2023-07-20T08:01:20;22.90;67.20
11836;DHT22;5977;51.972;7.640;2023-07-20T08:03:49;23.10;68.10
11836;DHT22;5977;51.972;7.640;2023-07-20T08:06:17;23.40;67.10
11836;DHT22;5977;51.972;7.640;2023-07-20T08:08:45;23.20;67.40
11836;DHT22;5977;51.972;7.640;2023-07-20T08:11:13;23.20;68.30
11836;DHT22;5977;51.972;7.640;2023-07-20T08:13:41;23.40;68.20
11836;DHT22;5977;51.972;7.640;2023-07-20T08:16:09;23.80;65.70
11836;DHT22;5977;51.972;7.640;2023-07-20T08:18:39;24.00;65.00
11836;DHT22;5977;51.972;7.640;2023-07-20T08:21:07;25.00;63.00
11836;DHT22;5977;51.972;7.640;2023-07-20T08:23:36;25.40;60.60
11836;DHT22;5977;51.972;7.640;2023-07-20T08:26:04;25.60;57.50
11836;DHT22;5977;51.972;7.640;2023-07-20T08:28:34;25.90;56.70
11836;DHT22;5977;51.972;7.640;2023-07-20T08:31:05;26.20;56.40
11836;DHT22;5977;51.972;7.640;2023-07-20T08:33:33;26.50;57.30
11836;DHT22;5977;51.972;7.640;2023-07-20T08:36:03;26.80;56.90
11836;DHT22;5977;51.972;7.640;2023-07-20T08:38:33;27.10;57.30
11836;DHT22;5977;51.972;7.640;2023-07-20T08:41:01;27.00;57.00
11836;DHT22;5977;51.972;7.640;2023-07-20T08:43:30;26.50;57.20
11836;DHT22;5977;51.972;7.640;2023-07-20T08:45:59;25.90;58.10
11836;DHT22;5977;51.972;7.640;2023-07-20T08:48:28;25.40;58.70
11836;DHT22;5977;51.972;7.640;2023-07-20T08:50:58;25.10;59.10
11836;DHT22;5977;51.972;7.640;2023-07-20T08:53:29;25.40;59.90
11836;DHT22;5977;51.972;7.640;2023-07-20T08:55:59;26.10;58.10
11836;DHT22;5977;51.972;7.640;2023-07-20T08:58:28;26.40;57.60
11836;DHT22;5977;51.972;7.640;2023-07-20T09:00:58;26.60;56.20
11836;DHT22;5977;51.972;7.640;2023-07-20T09:03:28;26.60;53.60
11836;DHT22;5977;51.972;7.640;2023-07-20T09:05:56;26.70;56.30
11836;DHT22;5977;51.972;7.640;2023-07-20T09:08:24;26.80;56.50
11836;DHT22;5977;51.972;7.640;2023-07-20T09:10:53;26.70;55.20
11836;DHT22;5977;51.972;7.640;2023-07-20T09:13:21;26.80;52.50
11836;DHT22;5977;51.972;7.640;2023-07-20T09:15:53;27.00;52.30
11836;DHT22;5977;51.972;7.640;2023-07-20T09:18:25;26.90;51.50
11836;DHT22;5977;51.972;7.640;2023-07-20T09:20:53;27.00;53.60
11836;DHT22;5977;51.972;7.640;2023-07-20T09:23:30;27.00;50.30
11836;DHT22;5977;51.972;7.640;2023-07-20T09:26:00;27.20;50.10
11836;DHT22;5977;51.972;7.640;2023-07-20T09:28:28;27.30;52.50
11836;DHT22;5977;51.972;7.640;2023-07-20T09:30:56;27.20;53.00
11836;DHT22;5977;51.972;7.640;2023-07-20T09:33:25;27.00;54.70
11836;DHT22;5977;51.972;7.640;2023-07-20T09:35:54;26.90;54.10
11836;DHT22;5977;51.972;7.640;2023-07-20T09:38:49;26.90;54.30
11836;DHT22;5977;51.972;7.640;2023-07-20T09:41:21;27.10;53.30
11836;DHT22;5977;51.972;7.640;2023-07-20T09:43:52;27.10;54.00
11836;DHT22;5977;51.972;7.640;2023-07-20T09:46:21;27.10;53.70
11836;DHT22;5977;51.972;7.640;2023-07-20T09:48:53;27.10;54.00
11836;DHT22;5977;51.972;7.640;2023-07-20T09:51:24;26.60;51.50
11836;DHT22;5977;51.972;7.640;2023-07-20T09:53:53;26.70;53.60
11836;DHT22;5977;51.972;7.640;2023-07-20T09:56:23;26.20;51.10
11836;DHT22;5977;51.972;7.640;2023-07-20T09:58:53;25.90;55.40
11836;DHT22;5977;51.972;7.640;2023-07-20T10:01:21;25.70;56.20
11836;DHT22;5977;51.972;7.640;2023-07-20T10:03:53;25.80;57.00
11836;DHT22;5977;51.972;7.640;2023-07-20T10:06:23;26.10;56.30
11836;DHT22;5977;51.972;7.640;2023-07-20T10:08:53;26.30;55.60
11836;DHT22;5977;51.972;7.640;2023-07-20T10:11:23;26.50;53.70
11836;DHT22;5977;51.972;7.640;2023-07-20T10:13:53;26.60;54.70
11836;DHT22;5977;51.972;7.640;2023-07-20T10:16:28;26.60;52.50
11836;DHT22;5977;51.972;7.640;2023-07-20T10:19:03;26.10;47.50
11836;DHT22;5977;51.972;7.640;2023-07-20T10:21:51;26.30;52.50
11836;DHT22;5977;51.972;7.640;2023-07-20T10:24:25;26.30;50.00
11836;DHT22;5977;51.972;7.640;2023-07-20T10:26:55;26.40;51.10
11836;DHT22;5977;51.972;7.640;2023-07-20T10:29:24;26.50;52.80
11836;DHT22;5977;51.972;7.640;2023-07-20T10:31:56;26.20;53.30
11836;DHT22;5977;51.972;7.640;2023-07-20T10:34:24;25.90;54.80
11836;DHT22;5977;51.972;7.640;2023-07-20T10:36:52;25.90;53.60
11836;DHT22;5977;51.972;7.640;2023-07-20T10:39:25;26.10;54.30
11836;DHT22;5977;51.972;7.640;2023-07-20T10:42:10;26.10;50.80
11836;DHT22;5977;51.972;7.640;2023-07-20T10:44:44;25.80;52.00
11836;DHT22;5977;51.972;7.640;2023-07-20T10:47:13;25.90;53.00
11836;DHT22;5977;51.972;7.640;2023-07-20T10:49:59;25.80;54.20
11836;DHT22;5977;51.972;7.640;2023-07-20T10:52:36;25.70;54.00
11836;DHT22;5977;51.972;7.640;2023-07-20T10:55:10;25.70;53.20
11836;DHT22;5977;51.972;7.640;2023-07-20T10:57:40;25.50;51.60
11836;DHT22;5977;51.972;7.640;2023-07-20T11:00:10;25.30;53.60
11836;DHT22;5977;51.972;7.640;2023-07-20T11:02:42;25.10;53.70
11836;DHT22;5977;51.972;7.640;2023-07-20T11:05:32;25.10;53.70
11836;DHT22;5977;51.972;7.640;2023-07-20T11:08:02;25.10;53.40
11836;DHT22;5977;51.972;7.640;2023-07-20T11:10:31;25.10;53.40
11836;DHT22;5977;51.972;7.640;2023-07-20T11:13:21;25.00;50.80
11836;DHT22;5977;51.972;7.640;2023-07-20T11:16:04;25.10;51.80
11836;DHT22;5977;51.972;7.640;2023-07-20T11:18:34;25.10;53.00
11836;DHT22;5977;51.972;7.640;2023-07-20T11:21:08;24.90;52.60
11836;DHT22;5977;51.972;7.640;2023-07-20T11:23:38;24.90;52.50
11836;DHT22;5977;51.972;7.640;2023-07-20T11:26:06;25.00;52.30
11836;DHT22;5977;51.972;7.640;2023-07-20T11:28:36;24.90;49.80
11836;DHT22;5977;51.972;7.640;2023-07-20T11:31:04;24.80;50.00
11836;DHT22;5977;51.972;7.640;2023-07-20T11:33:32;24.70;50.80
11836;DHT22;5977;51.972;7.640;2023-07-20T11:36:00;24.90;51.90
11836;DHT22;5977;51.972;7.640;2023-07-20T11:38:28;24.90;51.50
11836;DHT22;5977;51.972;7.640;2023-07-20T11:40:56;25.00;51.20
11836;DHT22;5977;51.972;7.640;2023-07-20T11:43:25;24.80;48.90
11836;DHT22;5977;51.972;7.640;2023-07-20T11:45:55;24.90;50.40
11836;DHT22;5977;51.972;7.640;2023-07-20T11:48:23;24.90;52.50
11836;DHT22;5977;51.972;7.640;2023-07-20T11:50:51;24.90;52.20
11836;DHT22;5977;51.972;7.640;2023-07-20T11:53:19;24.90;51.20
11836;DHT22;5977;51.972;7.640;2023-07-20T11:55:47;24.80;50.10
11836;DHT22;5977;51.972;7.640;2023-07-20T11:58:15;24.80;51.30
11836;DHT22;5977;51.972;7.640;2023-07-20T12:00:45;24.80;50.90
11836;DHT22;5977;51.972;7.640;2023-07-20T12:03:14;24.80;48.80
11836;DHT22;5977;51.972;7.640;2023-07-20T12:05:42;24.80;51.10
11836;DHT22;5977;51.972;7.640;2023-07-20T12:08:27;24.80;51.20
11836;DHT22;5977;51.972;7.640;2023-07-20T12:10:55;24.80;51.00
11836;DHT22;5977;51.972;7.640;2023-07-20T12:13:24;24.80;50.20
11836;DHT22;5977;51.972;7.640;2023-07-20T12:15:53;24.70;50.60
11836;DHT22;5977;51.972;7.640;2023-07-20T12:18:34;24.70;50.80
11836;DHT22;5977;51.972;7.640;2023-07-20T12:21:03;24.70;50.90
11836;DHT22;5977;51.972;7.640;2023-07-20T12:23:35;24.70;50.90
11836;DHT22;5977;51.972;7.640;2023-07-20T12:26:06;24.60;49.80
11836;DHT22;5977;51.972;7.640;2023-07-20T12:28:38;24.60;49.90
11836;DHT22;5977;51.972;7.640;2023-07-20T12:31:07;24.60;50.40
11836;DHT22;5977;51.972;7.640;2023-07-20T12:33:37;24.60;50.10
11836;DHT22;5977;51.972;7.640;2023-07-20T12:36:05;24.60;49.90
11836;DHT22;5977;51.972;7.640;2023-07-20T12:38:34;24.70;50.40
11836;DHT22;5977;51.972;7.640;2023-07-20T12:41:02;24.80;50.50
11836;DHT22;5977;51.972;7.640;2023-07-20T12:43:30;24.80;50.40
11836;DHT22;5977;51.972;7.640;2023-07-20T12:45:59;24.80;50.50
11836;DHT22;5977;51.972;7.640;2023-07-20T12:48:27;24.80;51.50
11836;DHT22;5977;51.972;7.640;2023-07-20T12:50:56;24.70;50.20
11836;DHT22;5977;51.972;7.640;2023-07-20T12:53:24;24.70;50.90
11836;DHT22;5977;51.972;7.640;2023-07-20T12:55:52;24.70;51.20
11836;DHT22;5977;51.972;7.640;2023-07-20T12:58:20;24.70;51.50
11836;DHT22;5977;51.972;7.640;2023-07-20T13:00:48;24.70;51.00
11836;DHT22;5977;51.972;7.640;2023-07-20T13:03:16;24.70;51.20
11836;DHT22;5977;51.972;7.640;2023-07-20T13:05:48;24.70;51.40
11836;DHT22;5977;51.972;7.640;2023-07-20T13:08:26;24.70;51.60
11836;DHT22;5977;51.972;7.640;2023-07-20T13:10:54;24.70;51.30
11836;DHT22;5977;51.972;7.640;2023-07-20T13:13:22;24.70;50.10
11836;DHT22;5977;51.972;7.640;2023-07-20T13:15:50;24.80;50.80
11836;DHT22;5977;51.972;7.640;2023-07-20T13:18:21;24.70;50.90
11836;DHT22;5977;51.972;7.640;2023-07-20T13:20:49;24.60;49.30
11836;DHT22;5977;51.972;7.640;2023-07-20T13:23:17;24.50;48.80
11836;DHT22;5977;51.972;7.640;2023-07-20T13:25:46;24.60;50.70
11836;DHT22;5977;51.972;7.640;2023-07-20T13:28:14;24.50;48.00
11836;DHT22;5977;51.972;7.640;2023-07-20T13:30:42;24.50;49.10
11836;DHT22;5977;51.972;7.640;2023-07-20T13:33:11;24.50;50.60
11836;DHT22;5977;51.972;7.640;2023-07-20T13:35:44;24.50;50.50
11836;DHT22;5977;51.972;7.640;2023-07-20T13:38:15;24.60;50.20
11836;DHT22;5977;51.972;7.640;2023-07-20T13:40:45;24.60;50.00
11836;DHT22;5977;51.972;7.640;2023-07-20T13:43:13;24.60;50.00
11836;DHT22;5977;51.972;7.640;2023-07-20T13:45:41;24.60;50.10
11836;DHT22;5977;51.972;7.640;2023-07-20T13:48:09;24.60;49.90
11836;DHT22;5977;51.972;7.640;2023-07-20T13:50:37;24.50;48.20
11836;DHT22;5977;51.972;7.640;2023-07-20T13:53:25;24.50;48.80
11836;DHT22;5977;51.972;7.640;2023-07-20T13:55:58;24.30;52.00
11836;DHT22;5977;51.972;7.640;2023-07-20T13:58:30;23.90;54.00
11836;DHT22;5977;51.972;7.640;2023-07-20T14:00:58;23.90;54.50
11836;DHT22;5977;51.972;7.640;2023-07-20T14:03:26;23.80;54.50
11836;DHT22;5977;51.972;7.640;2023-07-20T14:05:54;23.70;54.80
11836;DHT22;5977;51.972;7.640;2023-07-20T14:08:26;23.50;55.60
11836;DHT22;5977;51.972;7.640;2023-07-20T14:10:58;23.50;55.70
11836;DHT22;5977;51.972;7.640;2023-07-20T14:13:29;23.70;55.50
11836;DHT22;5977;51.972;7.640;2023-07-20T14:16:13;23.90;55.00
11836;DHT22;5977;51.972;7.640;2023-07-20T14:18:41;23.90;55.00
11836;DHT22;5977;51.972;7.640;2023-07-20T14:21:09;24.10;55.00
11836;DHT22;5977;51.972;7.640;2023-07-20T14:23:37;24.30;54.80
11836;DHT22;5977;51.972;7.640;2023-07-20T14:26:06;24.20;54.50
11836;DHT22;5977;51.972;7.640;2023-07-20T14:28:36;24.20;54.40
11836;DHT22;5977;51.972;7.640;2023-07-20T14:31:04;24.10;54.60
11836;DHT22;5977;51.972;7.640;2023-07-20T14:33:33;24.10;55.20
11836;DHT22;5977;51.972;7.640;2023-07-20T14:36:02;24.10;54.70
11836;DHT22;5977;51.972;7.640;2023-07-20T14:38:31;24.10;54.60
11836;DHT22;5977;51.972;7.640;2023-07-20T14:40:59;24.10;54.20
11836;DHT22;5977;51.972;7.640;2023-07-20T14:43:28;24.20;54.60
11836;DHT22;5977;51.972;7.640;2023-07-20T14:45:57;24.40;54.70
11836;DHT22;5977;51.972;7.640;2023-07-20T14:48:24;24.50;54.50
11836;DHT22;5977;51.972;7.640;2023-07-20T14:50:53;24.60;53.90
11836;DHT22;5977;51.972;7.640;2023-07-20T14:53:31;24.50;53.50
11836;DHT22;5977;51.972;7.640;2023-07-20T14:56:03;24.10;53.10
11836;DHT22;5977;51.972;7.640;2023-07-20T14:58:32;24.00;53.60
11836;DHT22;5977;51.972;7.640;2023-07-20T15:01:02;24.10;54.50
11836;DHT22;5977;51.972;7.640;2023-07-20T15:03:30;24.30;54.40
11836;DHT22;5977;51.972;7.640;2023-07-20T15:05:59;24.40;54.20
11836;DHT22;5977;51.972;7.640;2023-07-20T15:08:27;24.50;53.90
11836;DHT22;5977;51.972;7.640;2023-07-20T15:10:55;24.50;54.20
11836;DHT22;5977;51.972;7.640;2023-07-20T15:13:23;24.30;53.10
11836;DHT22;5977;51.972;7.640;2023-07-20T15:15:52;24.10;53.70
11836;DHT22;5977;51.972;7.640;2023-07-20T15:18:20;24.30;54.60
11836;DHT22;5977;51.972;7.640;2023-07-20T15:21:07;24.30;54.10
11836;DHT22;5977;51.972;7.640;2023-07-20T15:23:35;24.40;53.70
11836;DHT22;5977;51.972;7.640;2023-07-20T15:26:03;24.10;53.80
11836;DHT22;5977;51.972;7.640;2023-07-20T15:28:31;24.20;53.80
11836;DHT22;5977;51.972;7.640;2023-07-20T15:31:01;24.20;53.50
11836;DHT22;5977;51.972;7.640;2023-07-20T15:33:30;24.30;53.60
11836;DHT22;5977;51.972;7.640;2023-07-20T15:35:58;24.30;54.20
11836;DHT22;5977;51.972;7.640;2023-07-20T15:38:26;24.40;54.40
11836;DHT22;5977;51.972;7.640;2023-07-20T15:40:54;24.50;54.60
11836;DHT22;5977;51.972;7.640;2023-07-20T15:43:24;24.50;54.20
11836;DHT22;5977;51.972;7.640;2023-07-20T15:46:09;24.30;54.40
11836;DHT22;5977;51.972;7.640;2023-07-20T15:48:50;24.30;54.20
11836;DHT22;5977;51.972;7.640;2023-07-20T15:51:18;24.40;54.40
11836;DHT22;5977;51.972;7.640;2023-07-20T15:53:47;24.50;54.20
11836;DHT22;5977;51.972;7.640;2023-07-20T15:56:15;24.50;54.50
11836;DHT22;5977;51.972;7.640;2023-07-20T16:02:33;24.60;53.80
11836;DHT22;5977;51.972;7.640;2023-07-20T16:05:09;24.60;53.90
11836;DHT22;5977;51.972;7.640;2023-07-20T16:08:07;24.60;53.80
11836;DHT22;5977;51.972;7.640;2023-07-20T16:11:09;24.60;53.50